Station info - map view · info · telemetry · weather · raw · status · beacons · messages · bulletins · browse · moving · my account
Callsign, ship name or locator: Clear       
It is possible to search using wildcards (*?) after a prefix. Example: OH*
APRS station JG0BGW-9 - show graphs
Map loading...
Mic-E message: Off duty
Location: 35°53.08' N 137°59.13' E - locator PM85XV82GH - show map - static map
4.3 miles Northeast bearing 24° from Ina, Nagano, Japan [?]
6.9 miles South bearing 185° from Tatsuno, Nagano, Japan
66.5 miles North bearing 340° from Shizuoka-shi, Shizuoka, Japan
77.7 miles Northeast bearing 51° from Nagoya-shi, Aichi, Japan
Last position: 2019-01-21 18:47:23 EST (1h59m ago)
2019-01-22 08:47:23 JST local time at Ina, Japan [?]
Altitude: 2195 ft
Course: 329°
Speed: 12 MPH
Device: Yaesu: FTM-100D (rig)
Last path: JG0BGW-9>SUUSP8 via WIDE1-1,qAR,JA0ZJX-10 (good)
Positions stored: 18782
Packet rate: 339 seconds between packets on average during 6445 seconds.
Other SSIDs: JG0BGW-1
Stations near current position of JG0BGW-9 - show more
callsign distance last heard - EST      callsign distance last heard - EST
JH0WYT-91.2 miles 9°2019-01-21 12:09:26 JJ0RSX-72.2 miles 357°2019-01-06 01:15:46
JE0CDF-A2.8 miles 248°2019-01-21 04:16:54 JR0UDH-i3.2 miles 248°2019-01-20 03:57:44
JJ0RXU-103.3 miles 353°2019-01-19 11:02:32 JG0BGW-19.3 miles 11°2019-01-21 20:20:56
JR0UDH-711.0 miles 39°2019-01-18 08:52:29 JE0TGY-1211.5 miles 34°2019-01-21 03:15:01
JJ0BGR-911.7 miles 192°2019-01-21 04:55:50 JR2WDR-712.0 miles 233°2019-01-19 00:18:51
JH0FFT-913.1 miles 74°2019-01-21 18:35:49 EL-5676513.2 miles 13°2019-01-21 20:29:07
JR0YPJ-1013.2 miles 13°2019-01-21 20:30:25 JR0IVN-913.3 miles 13°2019-01-19 05:36:19
JR0CST-1013.4 miles 56°2019-01-21 20:11:02 JR0ZGO-513.5 miles 264°2019-01-20 04:51:04
JR0CST-913.7 miles 55°2019-01-21 20:04:04 EL-99853114.0 miles 265°2019-01-21 20:39:51
JJ0LGR-914.0 miles 20°2019-01-21 05:12:42 EL-98842914.0 miles 196°2019-01-21 20:39:47
Stations which heard JG0BGW-9 directly on radio –
callsign pkts first heard - EST last heard longest (tx => rx) longest at - EST
JA1KWV-1 1 2019-01-20 16:08:29 2019-01-20 16:08:29 PM95OO > PM95TR 26.4 miles 75° 2019-01-20 16:08:29
JS1RMZ-1 18 2019-01-16 08:55:35 2019-01-20 23:52:49 PM95MO > PM95QQ 22.3 miles 75° 2019-01-20 07:03:19
JA1YKX-1 30 2019-01-16 08:42:58 2019-01-20 23:39:56 PM95LO > PM95SM 32.4 miles 103° 2019-01-20 07:00:39
JH0KSP-10 4 2019-01-10 02:36:02 2019-01-20 02:27:38 PM85XV > PM85VM 26.5 miles 197° 2019-01-20 02:27:38
JQ1YXN-10 1 2019-01-10 17:07:47 2019-01-10 17:07:47 PM86WE > PM96DJ 26.0 miles 51° 2019-01-10 17:07:47
JH0JRL-10 9 2019-01-10 17:01:37 2019-01-10 19:13:47 PM86WD > PM96DP 41.5 miles 34° 2019-01-10 17:04:46
JA0ZJX-10 40 2019-01-10 02:25:42 2019-01-21 18:47:23 PM95CW > PM86XE 23.0 miles 323° 2019-01-20 03:48:09
JO1PYV-1 1 2019-01-16 23:59:18 2019-01-16 23:59:18 PM95HO > PM95GQ 6.5 miles 323° 2019-01-16 23:59:18
JE4YKB-13 5 2019-01-16 11:25:24 2019-01-16 15:12:16 PM95OO > PM95SJ 21.7 miles 131° 2019-01-16 15:12:16
JA2YQQ-3 1 2019-01-20 16:06:42 2019-01-20 16:06:42 PM95OO > PM94NX 45.5 miles 184° 2019-01-20 16:06:42
JM1YTY-3 59 2019-01-16 08:54:28 2019-01-21 00:29:08 PM95MP > PM95WC 59.0 miles 128° 2019-01-16 23:25:23
JA1YFL-10 52 2019-01-16 06:23:23 2019-01-21 02:27:18 PM95DV > PM95GQ 23.0 miles 128° 2019-01-20 03:57:29
JM1YUK-3 5 2019-01-16 08:53:57 2019-01-20 23:57:11 PM95OO > QM05AC 59.7 miles 126° 2019-01-20 16:04:18
JM1YTU-3 18 2019-01-16 08:07:14 2019-01-21 00:33:31 PM95ES > QM05CL 102.4 miles 101° 2019-01-20 04:26:18
JQ1ZEG-10 12 2019-01-16 19:50:19 2019-01-20 23:51:03 PM95NO > PM95RN 19.4 miles 104° 2019-01-16 23:22:02
JO1YLU-3 13 2019-01-16 08:53:58 2019-01-20 16:33:20 PM95NO > PM95XG 51.1 miles 119° 2019-01-16 08:53:58
JH0WJE-10 36 2019-01-10 05:25:22 2019-01-21 03:33:36 PM85XV > PM86WI 34.0 miles 348° 2019-01-16 03:06:40
JG0BGW-1 78 2019-01-10 02:41:31 2019-01-21 18:46:52 PM86WE > PM96AA 12.6 miles 148° 2019-01-10 19:21:29
JH0YKS-1 9 2019-01-10 16:40:00 2019-01-21 17:41:19 PM85XU > PM86WO 51.9 miles 356° 2019-01-11 00:27:25
JR0CST-10 113 2019-01-10 02:28:16 2019-01-21 17:22:23 PM86XD > PM95CX 17.5 miles 123° 2019-01-10 16:58:42
JH1WUX-1 4 2019-01-16 08:40:29 2019-01-20 18:40:48 PM95NO > PM95TU 33.3 miles 59° 2019-01-16 08:40:29
JM1YTT-10 9 2019-01-16 09:38:03 2019-01-16 13:12:16 PM95OO > QM05CR 57.4 miles 81° 2019-01-16 11:29:24
7L4VOH-10 12 2019-01-16 07:26:46 2019-01-21 01:41:52 PM95ER > PM95IM 23.2 miles 130° 2019-01-20 04:28:56
7N3RLX-10 4 2019-01-16 04:50:22 2019-01-16 06:33:37 PM95ES > PM96DB 19.8 miles 340° 2019-01-16 06:33:37
JQ1YWA-10 39 2019-01-16 09:11:03 2019-01-20 23:55:10 PM95NO > PM95QR 16.5 miles 59° 2019-01-20 14:49:01

Only position packets which were originated by the station are shown here. The range statistics show some extra long hops, because some digipeaters do not correctly add themselves to the digipeater path. Please check the raw packets.
About this site
This page shows real-time information collected from the Automatic Position Reporting System Internet network (APRS-IS). APRS is used by amateur (ham) radio operators to transmit real-time position information, weather data, telemetry and messages over the radio. A vehicle equipped with a GPS receiver, a VHF transmitter or HF transceiver and a small computer device called a tracker transmits it's location, speed and course in a small data packet, which is then received by a nearby iGate receiving site which forwards the packet on the Internet. Systems connected to the Internet can send information on the APRS-IS without a radio transmitter, or collect and display information transmitted anywhere in the world.
FAQ · Blog · Discussion group · Linking to aprs.fi · AIS sites · Service status · Database statistics · Advertising on aprs.fi · Technical details · API · Change log · Planned changes · Credits and thanks · Terms Of Service · iPhone/iPad APRS